General Ignacio P Garcia International Airport
MMHO : now visible

Airfield :











YOU CAN JOIN US ON...

 
LOGIN :

Register | Disclaimer

   EN    FR    IT 

 









Legend :    VFR   Marginal VFR   IFR   Intensive IFR   Very Intensive IFR
Visi :
Ceiling :
>= 8 km
>= 3000ft
5 to 8 km
1000 to 3000 ft
1500m to 5 km
500 to 1000 ft
800 to 1500m
200 to 500 ft
< 800m
< 200 ft
Symbols :   Thunderstorms  Fog  Heavy snow  Heavy precipitations  Wind > 20 kt







- Airport Elevation : 627 ft
- IATA code : HMO


MMHO - General Ignacio P Garcia International

CURRENT METAR :
  • 170740Z 09006KT 10SM FEW040 26/22 A2989 RMK 8/400

EXPIRED METARs :
  • 170640Z 07004KT 10SM FEW040 27/21 A2989 RMK 8/400 ISOL AC
  • 170540Z 03005KT 10SM SCT040 SCT090 26/22 A2990 RMK SLP117 52001 952 8/460

TAF TAF MMHO
Valid from the 17 at 06:00 until the 18 at 06:00 UTC


170341Z 1706/1806 12005KT P6SM SCT030 BKN080
TEMPO 1706/1709 5SM -RA BKN030CB
FM171800 03012KT P6SM SCT030 BKN080 BKN250
FM180500 34005KT P6SM SCT030 SCT090
No reported NOTAMs for that airfield.



MET'MAP, your aeronautical weather chart ! - Copyright ORBIFLY December 2007 - Disclaimer

ORBIFLY MET'MAP TEAM :

Programming & Development : Alexandra Zaïnal
Concept & Development : Baudouin d'Aumeries
Co-Development & Prog : Marc-Olivier Méhu
Technical & hardware support : Manuel Goepfert

Contact : metmap@orbifly.com




SOURCES & CREDITS :

   NOAA       Earth
Advisory